Time;durP1;ratioP1;P1;durP2;ratioP2;P2;SDS_P1;SDS_P2;PMS_P1;PMS_P2;Temp;Humidity;BMP_temperature;BMP_pressure;BME280_temperature;BME280_humidity;BME280_pressure;Samples;Min_cycle;Max_cycle;Signal;HPM_P1;HPM_P2
2022/05/25 00:02:24;;;;;;;9.30;7.20;;;14.70;99.90;;;;;;4956116;29;20031;-88
2022/05/25 00:04:51;;;;;;;10.45;7.22;;;14.70;99.90;;;;;;4956920;29;20455;-87
2022/05/25 00:07:18;;;;;;;11.63;7.55;;;14.70;99.90;;;;;;4955862;29;20038;-87
2022/05/25 00:09:44;;;;;;;9.90;7.18;;;14.70;99.90;;;;;;4955471;29;20027;-87
2022/05/25 00:12:13;;;;;;;10.07;7.25;;;14.60;99.90;;;;;;4956246;28;20083;-87
2022/05/25 00:14:39;;;;;;;13.48;7.50;;;14.60;99.90;;;;;;4964616;29;20024;-85
2022/05/25 00:17:07;;;;;;;8.93;7.03;;;14.60;99.90;;;;;;4956450;29;20102;-87
2022/05/25 00:22:17;;;;;;;9.55;7.45;;;14.60;99.90;;;;;;4956534;29;20061;-85
2022/05/25 00:24:42;;;;;;;9.70;7.80;;;14.60;99.90;;;;;;4923640;29;20492;-86
2022/05/25 00:27:08;;;;;;;10.35;8.38;;;14.60;99.90;;;;;;4956223;29;20077;-86
2022/05/25 00:29:36;;;;;;;9.95;7.45;;;14.50;99.90;;;;;;4939299;29;20043;-86
2022/05/25 00:32:03;;;;;;;10.38;8.38;;;14.50;99.90;;;;;;4923528;29;20468;-87
2022/05/25 00:34:29;;;;;;;10.77;7.80;;;14.40;99.90;;;;;;4939011;29;20035;-86
2022/05/25 00:36:55;;;;;;;12.35;7.70;;;14.40;99.90;;;;;;4956247;29;20454;-87
2022/05/25 00:39:23;;;;;;;11.52;7.82;;;14.40;99.90;;;;;;4954898;29;20409;-87
2022/05/25 00:41:50;;;;;;;10.50;7.85;;;14.40;99.90;;;;;;4954911;29;20031;-86
2022/05/25 00:44:16;;;;;;;10.80;8.23;;;14.40;99.90;;;;;;4954712;29;20035;-87
2022/05/25 00:46:41;;;;;;;9.80;7.97;;;14.30;99.90;;;;;;4954768;29;20097;-87
2022/05/25 00:49:25;;;;;;;9.57;8.10;;;14.30;99.90;;;;;;4954544;29;20067;-88
2022/05/25 00:52:01;;;;;;;8.98;8.05;;;14.30;99.90;;;;;;4956007;29;20019;-87
2022/05/25 00:54:34;;;;;;;8.70;7.65;;;14.20;99.90;;;;;;4954440;29;20027;-87
2022/05/25 00:57:04;;;;;;;11.20;8.15;;;14.10;99.90;;;;;;4956166;29;20024;-87
2022/05/25 00:59:35;;;;;;;9.85;8.00;;;14.10;99.90;;;;;;4955904;29;20030;-86
2022/05/25 01:02:00;;;;;;;10.30;7.63;;;14.10;99.90;;;;;;4954765;29;20047;-87
2022/05/25 01:04:26;;;;;;;7.95;7.07;;;14.00;99.90;;;;;;4955786;29;20436;-86
2022/05/25 01:06:58;;;;;;;11.40;7.55;;;14.00;99.90;;;;;;4954811;29;20110;-86
2022/05/25 01:10:08;;;;;;;9.70;7.70;;;14.00;99.90;;;;;;4938761;29;20027;-87
2022/05/25 01:12:39;;;;;;;8.93;6.90;;;14.00;99.90;;;;;;4936126;29;20051;-87
2022/05/25 01:15:18;;;;;;;10.48;8.02;;;13.90;99.90;;;;;;4955803;29;20042;-86
2022/05/25 01:18:02;;;;;;;9.95;7.38;;;13.90;99.90;;;;;;4955970;29;20023;-86
2022/05/25 01:20:45;;;;;;;12.25;7.07;;;13.80;99.90;;;;;;4957377;29;20046;-87
2022/05/25 01:23:22;;;;;;;11.25;7.10;;;13.80;99.90;;;;;;4959148;29;20127;-87
2022/05/25 01:26:06;;;;;;;11.48;7.32;;;13.80;99.90;;;;;;4955934;29;20085;-86
2022/05/25 01:28:59;;;;;;;10.70;6.90;;;13.80;99.90;;;;;;4954667;29;20440;-86
2022/05/25 01:31:36;;;;;;;9.75;6.55;;;13.80;99.90;;;;;;4953672;28;20027;-87
2022/05/25 01:34:11;;;;;;;8.88;7.28;;;13.80;99.90;;;;;;4938659;29;20114;-86
2022/05/25 01:36:52;;;;;;;8.27;5.93;;;13.80;99.90;;;;;;4938295;29;20023;-86
2022/05/25 01:39:23;;;;;;;8.02;6.05;;;13.80;99.90;;;;;;4954261;29;20031;-87
2022/05/25 01:41:48;;;;;;;8.52;6.38;;;13.80;99.90;;;;;;4938700;29;20023;-87
2022/05/25 01:44:18;;;;;;;8.45;6.25;;;13.70;99.90;;;;;;4938241;29;20468;-86
2022/05/25 01:47:03;;;;;;;8.33;6.13;;;13.70;99.90;;;;;;4955740;29;20079;-86
2022/05/25 01:49:35;;;;;;;8.55;5.97;;;13.70;99.90;;;;;;4938297;29;20023;-87
2022/05/25 01:52:05;;;;;;;12.52;6.25;;;13.60;99.90;;;;;;4938782;29;20110;-87
2022/05/25 01:54:40;;;;;;;10.05;6.60;;;13.60;99.90;;;;;;4938121;29;20073;-86
2022/05/25 01:57:10;;;;;;;8.27;6.20;;;13.60;99.90;;;;;;4938584;29;20114;-86
2022/05/25 01:59:36;;;;;;;7.70;6.45;;;13.60;99.90;;;;;;4955431;29;20028;-87
2022/05/25 02:04:51;;;;;;;7.03;5.97;;;13.50;99.90;;;;;;4955190;29;20102;-87
2022/05/25 02:07:35;;;;;;;9.82;6.70;;;13.50;99.90;;;;;;4955108;29;20029;-87
2022/05/25 02:10:28;;;;;;;8.52;6.38;;;13.50;99.90;;;;;;4938268;29;20502;-87
2022/05/25 02:13:26;;;;;;;7.63;5.95;;;13.50;99.90;;;;;;4937879;29;20511;-86
2022/05/25 02:16:29;;;;;;;7.68;5.90;;;13.50;99.90;;;;;;4955364;29;20024;-87
2022/05/25 02:19:19;;;;;;;9.25;6.45;;;13.50;99.90;;;;;;4955397;29;20106;-86
2022/05/25 02:21:55;;;;;;;9.07;6.20;;;13.50;99.90;;;;;;4955425;29;20031;-86
2022/05/25 02:24:38;;;;;;;7.55;6.38;;;13.40;99.90;;;;;;4955020;29;20035;-87
2022/05/25 02:27:18;;;;;;;8.50;6.63;;;13.40;99.90;;;;;;4938445;29;20100;-88
2022/05/25 02:29:48;;;;;;;9.45;7.22;;;13.40;99.90;;;;;;4938375;29;20032;-87
2022/05/25 02:32:40;;;;;;;11.02;7.55;;;13.40;99.90;;;;;;4955120;29;20094;-87
2022/05/25 02:35:07;;;;;;;8.82;7.35;;;13.40;99.90;;;;;;4967241;28;20034;-87
2022/05/25 02:37:35;;;;;;;12.63;7.38;;;13.40;99.90;;;;;;4961195;29;20030;-87
2022/05/25 02:40:06;;;;;;;9.30;7.03;;;13.40;99.90;;;;;;4945985;29;20027;-86
2022/05/25 02:42:32;;;;;;;8.88;7.00;;;13.40;99.90;;;;;;4962520;29;20026;-88
2022/05/25 02:44:57;;;;;;;10.13;6.85;;;13.40;99.90;;;;;;4951171;28;20051;-86
2022/05/25 02:47:26;;;;;;;11.52;7.03;;;13.40;99.90;;;;;;4967789;28;20034;-90
2022/05/25 02:49:52;;;;;;;11.80;7.15;;;13.40;99.90;;;;;;4968410;28;20066;-88
2022/05/25 02:52:17;;;;;;;9.50;7.40;;;13.40;99.90;;;;;;4952274;28;20078;-86
2022/05/25 02:54:43;;;;;;;9.05;7.22;;;13.40;99.90;;;;;;5001127;28;20045;-87
2022/05/25 02:57:09;;;;;;;9.32;6.85;;;13.40;99.90;;;;;;4968564;28;20015;-87
2022/05/25 02:59:35;;;;;;;9.30;6.95;;;13.40;99.90;;;;;;4968066;28;20007;-87
2022/05/25 03:02:02;;;;;;;10.23;6.97;;;13.50;99.90;;;;;;4983394;28;20022;-89
2022/05/25 03:04:28;;;;;;;10.60;6.75;;;13.40;99.90;;;;;;4949565;28;20094;-87
2022/05/25 03:06:53;;;;;;;8.25;6.15;;;13.40;99.90;;;;;;4981578;28;20038;-86
2022/05/25 03:09:19;;;;;;;9.93;7.00;;;13.40;99.90;;;;;;4964777;28;20007;-87
2022/05/25 03:11:45;;;;;;;11.05;6.35;;;13.40;99.90;;;;;;4948583;29;20070;-87
2022/05/25 03:14:11;;;;;;;9.55;6.47;;;13.40;99.90;;;;;;4959869;29;20034;-87
2022/05/25 03:16:36;;;;;;;10.45;6.72;;;13.30;99.90;;;;;;4945860;29;20027;-86
2022/05/25 03:19:02;;;;;;;12.00;6.65;;;13.30;99.90;;;;;;4941137;29;20035;-87
2022/05/25 03:21:28;;;;;;;10.32;6.07;;;13.30;99.90;;;;;;4924686;29;20082;-86
2022/05/25 03:23:53;;;;;;;11.30;6.30;;;13.30;99.90;;;;;;4941003;29;20036;-87
2022/05/25 03:26:19;;;;;;;11.25;6.60;;;13.20;99.90;;;;;;4940681;29;20460;-87
2022/05/25 03:28:45;;;;;;;9.48;6.75;;;13.20;99.90;;;;;;4940520;29;20779;-87
2022/05/25 03:31:10;;;;;;;9.43;6.40;;;13.20;99.90;;;;;;4957865;29;20035;-87
2022/05/25 03:33:36;;;;;;;8.82;6.63;;;13.20;99.90;;;;;;4924443;29;20032;-86
2022/05/25 03:36:03;;;;;;;10.30;6.90;;;13.10;99.90;;;;;;4957486;29;20055;-87
2022/05/25 03:38:28;;;;;;;11.55;6.95;;;13.10;99.90;;;;;;4940354;29;20038;-86
2022/05/25 03:40:55;;;;;;;12.48;7.03;;;13.10;99.90;;;;;;4940332;29;20032;-87
2022/05/25 03:43:21;;;;;;;9.70;6.57;;;13.10;99.90;;;;;;4940188;29;20038;-86
2022/05/25 03:45:47;;;;;;;10.02;6.90;;;13.10;99.90;;;;;;4957189;29;20072;-87
2022/05/25 03:48:14;;;;;;;10.93;7.47;;;13.10;99.90;;;;;;4957235;29;20031;-87
2022/05/25 03:50:41;;;;;;;10.73;7.57;;;13.00;99.90;;;;;;4957080;29;20027;-86
2022/05/25 03:53:12;;;;;;;11.32;7.38;;;13.00;99.90;;;;;;4940329;29;20504;-86
2022/05/25 03:55:38;;;;;;;10.77;7.38;;;12.90;99.90;;;;;;4959108;29;20046;-86
2022/05/25 03:58:04;;;;;;;13.40;7.45;;;12.90;99.90;;;;;;4937271;29;20091;-86
2022/05/25 04:00:30;;;;;;;10.65;7.10;;;12.90;99.90;;;;;;4941970;28;20015;-88
2022/05/25 04:02:59;;;;;;;10.07;7.45;;;12.90;99.90;;;;;;4976346;28;20383;-86
2022/05/25 04:05:26;;;;;;;11.05;7.32;;;12.80;99.90;;;;;;4976222;28;20042;-86
2022/05/25 04:07:51;;;;;;;11.07;7.20;;;12.80;99.90;;;;;;4958658;28;20084;-87
2022/05/25 04:10:19;;;;;;;11.40;7.85;;;12.80;99.90;;;;;;4942950;28;20454;-87
2022/05/25 04:12:45;;;;;;;10.65;8.10;;;12.80;99.90;;;;;;4974971;28;20084;-87
2022/05/25 04:15:16;;;;;;;11.63;7.30;;;12.80;99.90;;;;;;4987005;28;20041;-87
2022/05/25 04:17:41;;;;;;;13.68;7.65;;;12.80;99.90;;;;;;4984918;28;20042;-88
2022/05/25 04:20:08;;;;;;;10.57;7.95;;;12.70;99.90;;;;;;4938908;28;20027;-86
2022/05/25 04:22:35;;;;;;;12.73;8.18;;;12.80;99.90;;;;;;4957440;28;20034;-87
2022/05/25 04:25:07;;;;;;;12.13;8.00;;;12.70;99.90;;;;;;4939229;28;20034;-87
2022/05/25 04:27:36;;;;;;;11.50;8.43;;;12.70;99.90;;;;;;4947027;28;20459;-87
2022/05/25 04:30:03;;;;;;;15.60;9.68;;;12.70;99.90;;;;;;4975691;28;20475;-87
2022/05/25 04:32:29;;;;;;;13.93;9.25;;;12.70;99.90;;;;;;4962334;28;20031;-88
2022/05/25 04:34:57;;;;;;;14.63;9.68;;;12.70;99.90;;;;;;4922615;28;20031;-87
2022/05/25 04:40:07;;;;;;;14.20;10.10;;;12.70;99.90;;;;;;4945710;28;20443;-87
2022/05/25 04:42:33;;;;;;;13.90;9.52;;;12.60;99.90;;;;;;4917434;28;20045;-86
2022/05/25 04:45:00;;;;;;;13.43;9.30;;;12.60;99.90;;;;;;4922815;28;20121;-87
2022/05/25 04:47:34;;;;;;;12.02;9.60;;;12.60;99.90;;;;;;4972509;28;20019;-86
2022/05/25 04:50:06;;;;;;;13.20;9.45;;;12.60;99.90;;;;;;4933177;28;20119;-87
2022/05/25 04:52:33;;;;;;;12.80;9.40;;;12.60;99.90;;;;;;4957126;28;20110;-88
2022/05/25 04:54:59;;;;;;;13.50;8.85;;;12.60;99.90;;;;;;4961239;28;20066;-88
2022/05/25 04:57:27;;;;;;;11.50;9.00;;;12.60;99.90;;;;;;4971648;28;20109;-87
2022/05/25 04:59:59;;;;;;;13.00;9.10;;;12.60;99.90;;;;;;4924928;28;20463;-87
2022/05/25 05:02:25;;;;;;;13.50;9.18;;;12.60;99.90;;;;;;4957322;28;20030;-87
2022/05/25 05:04:51;;;;;;;12.30;9.38;;;12.60;99.90;;;;;;4943136;28;20467;-87
2022/05/25 05:07:17;;;;;;;12.60;8.57;;;12.60;99.90;;;;;;4952038;28;20062;-86
2022/05/25 05:09:45;;;;;;;11.57;8.73;;;12.60;99.90;;;;;;4945741;28;20026;-87
2022/05/25 05:12:12;;;;;;;12.23;9.02;;;12.60;99.90;;;;;;4909636;28;1115487;-86
2022/05/25 05:14:38;;;;;;;11.80;8.75;;;12.70;99.90;;;;;;4941275;29;20031;-87
2022/05/25 05:17:06;;;;;;;11.93;7.97;;;12.60;99.90;;;;;;4939625;29;20031;-87
2022/05/25 05:19:32;;;;;;;10.95;8.50;;;12.70;99.90;;;;;;4938998;29;20038;-87
2022/05/25 05:21:58;;;;;;;12.13;8.60;;;12.70;99.90;;;;;;4923167;29;20027;-89
2022/05/25 05:24:27;;;;;;;10.70;8.13;;;12.70;99.90;;;;;;4939248;29;20045;-89
2022/05/25 05:26:54;;;;;;;13.00;7.78;;;12.70;99.90;;;;;;4954759;29;20059;-89
2022/05/25 05:29:23;;;;;;;10.98;7.45;;;12.70;99.90;;;;;;4969309;28;20031;-90
2022/05/25 05:31:49;;;;;;;10.02;7.28;;;12.80;99.90;;;;;;4965618;28;20527;-89
2022/05/25 05:34:14;;;;;;;12.32;7.68;;;12.80;99.90;;;;;;4974768;28;20090;-86
2022/05/25 05:36:45;;;;;;;11.52;7.93;;;12.80;99.90;;;;;;4954110;28;20058;-87
2022/05/25 05:39:15;;;;;;;10.30;7.80;;;12.80;99.90;;;;;;4958544;28;20045;-86
2022/05/25 05:41:54;;;;;;;10.23;6.95;;;12.80;99.90;;;;;;4957436;28;20955;-86
2022/05/25 05:44:25;;;;;;;10.77;7.97;;;12.80;99.90;;;;;;4977846;28;20035;-86
2022/05/25 05:46:58;;;;;;;15.43;7.68;;;12.90;99.90;;;;;;4959257;28;20422;-87
2022/05/25 05:49:24;;;;;;;12.52;8.02;;;12.90;99.90;;;;;;4974470;28;20114;-86
2022/05/25 05:51:49;;;;;;;10.38;7.18;;;12.90;99.90;;;;;;4941021;28;20030;-86
2022/05/25 05:54:16;;;;;;;10.63;7.55;;;12.90;99.90;;;;;;4974580;28;20078;-86
2022/05/25 05:56:43;;;;;;;9.75;7.15;;;13.00;99.90;;;;;;4941106;28;20026;-86
2022/05/25 05:59:08;;;;;;;11.07;7.63;;;13.00;99.90;;;;;;4957122;28;20023;-86
2022/05/25 06:01:34;;;;;;;12.25;7.20;;;13.00;99.90;;;;;;4957475;28;20027;-86
2022/05/25 06:04:00;;;;;;;12.00;7.32;;;13.10;99.90;;;;;;4940853;28;20110;-86
2022/05/25 06:06:26;;;;;;;12.05;7.57;;;13.10;99.90;;;;;;4941155;28;20062;-86
2022/05/25 06:08:52;;;;;;;20.65;8.63;;;13.20;99.90;;;;;;4941472;28;20128;-86
2022/05/25 06:11:19;;;;;;;12.95;7.55;;;13.20;99.90;;;;;;4959431;28;20032;-86
2022/05/25 06:13:45;;;;;;;13.13;7.20;;;13.30;99.90;;;;;;4956900;28;20022;-86
2022/05/25 06:21:40;;;;;;;14.57;7.25;;;13.40;99.90;;;;;;4963294;28;20155;-85
2022/05/25 06:24:07;;;;;;;12.43;7.40;;;13.40;99.90;;;;;;4960590;28;20039;-86
2022/05/25 06:26:33;;;;;;;11.93;7.20;;;13.50;99.90;;;;;;4960421;28;20039;-86
2022/05/25 06:29:00;;;;;;;12.38;7.18;;;13.50;99.90;;;;;;4951884;28;20027;-85
2022/05/25 06:31:26;;;;;;;15.63;7.53;;;13.60;99.90;;;;;;4960881;28;20158;-86
2022/05/25 06:33:53;;;;;;;13.35;7.75;;;13.60;99.90;;;;;;4956627;29;20027;-87
2022/05/25 06:36:22;;;;;;;10.80;6.65;;;13.70;99.90;;;;;;4957318;29;20523;-87
2022/05/25 06:38:51;;;;;;;15.18;7.25;;;13.70;99.90;;;;;;4967102;28;20383;-89
2022/05/25 06:41:17;;;;;;;19.70;8.02;;;13.80;99.90;;;;;;4954223;28;20028;-86
2022/05/25 06:43:43;;;;;;;11.68;7.20;;;13.80;99.90;;;;;;4941216;29;20047;-85
2022/05/25 06:46:11;;;;;;;13.70;7.28;;;13.90;99.90;;;;;;4943113;28;20082;-85
2022/05/25 06:48:38;;;;;;;9.65;6.82;;;14.00;99.90;;;;;;4940517;29;20035;-85
2022/05/25 06:51:15;;;;;;;15.55;7.70;;;14.00;99.90;;;;;;4940221;29;20090;-85
2022/05/25 06:53:41;;;;;;;12.90;7.03;;;14.10;99.90;;;;;;4957586;29;20062;-86
2022/05/25 06:56:06;;;;;;;10.50;7.57;;;14.20;99.90;;;;;;4939738;29;20027;-85
2022/05/25 06:58:33;;;;;;;11.15;7.05;;;14.30;99.90;;;;;;4940516;29;20027;-85
2022/05/25 07:00:58;;;;;;;12.40;6.90;;;14.40;99.90;;;;;;4956364;29;20464;-85
2022/05/25 07:03:24;;;;;;;13.65;7.63;;;14.40;99.90;;;;;;4940704;29;20058;-85
2022/05/25 07:05:49;;;;;;;15.60;6.80;;;14.50;99.90;;;;;;4939137;28;20039;-85
2022/05/25 07:08:15;;;;;;;11.45;7.20;;;14.60;99.90;;;;;;4956307;29;20468;-86
2022/05/25 07:10:45;;;;;;;10.45;6.88;;;14.60;99.90;;;;;;4956497;29;20066;-85
2022/05/25 07:13:16;;;;;;;10.63;6.57;;;14.70;99.90;;;;;;4955808;28;20055;-85
2022/05/25 07:15:42;;;;;;;10.75;6.03;;;14.70;99.90;;;;;;4956392;29;20039;-85
2022/05/25 07:18:09;;;;;;;12.18;6.60;;;14.80;99.90;;;;;;4940022;29;20027;-86
2022/05/25 07:20:35;;;;;;;11.13;6.72;;;14.90;99.90;;;;;;4956177;29;20413;-85
2022/05/25 07:23:01;;;;;;;11.20;6.70;;;14.90;99.90;;;;;;4956078;29;20023;-85
2022/05/25 07:25:26;;;;;;;12.20;6.53;;;15.10;99.90;;;;;;4956087;29;20035;-85
2022/05/25 07:27:52;;;;;;;10.40;5.88;;;15.10;99.90;;;;;;4956103;29;20114;-85
2022/05/25 07:30:18;;;;;;;11.30;6.20;;;15.20;99.90;;;;;;4956775;28;20023;-85
2022/05/25 07:32:45;;;;;;;9.98;6.32;;;15.30;99.90;;;;;;4957365;29;20114;-85
2022/05/25 07:35:13;;;;;;;8.63;5.53;;;15.40;99.90;;;;;;4955832;29;20116;-86
2022/05/25 07:37:40;;;;;;;12.35;6.55;;;15.50;99.90;;;;;;4956105;29;20036;-85
2022/05/25 07:40:18;;;;;;;13.18;6.30;;;15.60;99.90;;;;;;4957014;29;20127;-86
2022/05/25 07:42:48;;;;;;;9.32;5.65;;;15.70;99.90;;;;;;4955940;29;20031;-85
2022/05/25 07:45:13;;;;;;;11.32;6.43;;;15.70;99.90;;;;;;4956935;29;20035;-86
2022/05/25 07:47:39;;;;;;;9.80;5.80;;;15.80;99.90;;;;;;4939941;29;20034;-85
2022/05/25 07:50:06;;;;;;;9.90;6.10;;;15.90;99.90;;;;;;4955666;29;20365;-85
2022/05/25 07:52:36;;;;;;;10.63;6.65;;;15.90;99.90;;;;;;4955637;29;20078;-89
2022/05/25 07:55:05;;;;;;;13.90;7.25;;;16.00;99.90;;;;;;4955882;29;20031;-85
2022/05/25 07:57:30;;;;;;;10.70;6.20;;;16.10;99.90;;;;;;4955610;29;20024;-85
2022/05/25 07:59:56;;;;;;;10.93;6.25;;;16.10;99.90;;;;;;4955535;29;20087;-85
2022/05/25 08:05:43;;;;;;;10.10;7.00;;;16.30;99.90;;;;;;4956664;29;20051;-85
2022/05/25 08:08:13;;;;;;;14.25;6.80;;;16.40;99.90;;;;;;4956452;29;20054;-86
2022/05/25 08:10:42;;;;;;;14.95;7.20;;;16.50;99.90;;;;;;4956698;29;20023;-86
2022/05/25 08:13:08;;;;;;;13.23;7.57;;;16.60;99.90;;;;;;4954650;28;20047;-86
2022/05/25 08:15:33;;;;;;;10.10;6.80;;;16.60;99.90;;;;;;4955224;29;20038;-85
2022/05/25 08:18:00;;;;;;;9.70;7.03;;;16.70;99.90;;;;;;4955079;29;20399;-86
2022/05/25 08:20:26;;;;;;;10.23;6.35;;;16.80;99.90;;;;;;4956320;29;20055;-85
2022/05/25 08:22:52;;;;;;;13.32;6.97;;;16.80;99.90;;;;;;4957220;29;20055;-86
2022/05/25 08:25:19;;;;;;;7.63;6.40;;;16.90;99.90;;;;;;4940243;29;20519;-87
2022/05/25 08:27:45;;;;;;;10.73;6.78;;;17.00;99.80;;;;;;4955026;29;20486;-86
2022/05/25 08:30:20;;;;;;;8.60;6.30;;;17.10;99.50;;;;;;4954585;29;20027;-86
2022/05/25 08:32:46;;;;;;;9.65;6.97;;;17.20;99.30;;;;;;4954805;29;20023;-85
2022/05/25 08:35:13;;;;;;;10.00;7.53;;;17.20;99.10;;;;;;4954743;29;20122;-85
2022/05/25 08:37:39;;;;;;;8.32;6.40;;;17.30;98.50;;;;;;4956014;29;20361;-86
2022/05/25 08:40:06;;;;;;;11.07;6.57;;;17.40;98.30;;;;;;4937565;29;20235;-86
2022/05/25 08:42:36;;;;;;;11.07;6.95;;;17.40;98.00;;;;;;4940401;29;20031;-86
2022/05/25 08:45:03;;;;;;;10.57;7.03;;;17.40;98.10;;;;;;4938533;29;20472;-86
2022/05/25 08:47:28;;;;;;;12.70;7.50;;;17.50;97.80;;;;;;4938594;29;20035;-86
2022/05/25 08:49:55;;;;;;;9.13;7.50;;;17.50;97.40;;;;;;4938797;29;20027;-86
2022/05/25 08:52:30;;;;;;;10.05;7.90;;;17.60;97.30;;;;;;4954516;29;20042;-86
2022/05/25 08:54:59;;;;;;;9.38;7.28;;;17.60;97.40;;;;;;4954658;29;20023;-85
2022/05/25 08:57:30;;;;;;;9.38;7.63;;;17.70;97.10;;;;;;4955546;29;20027;-86
2022/05/25 09:00:04;;;;;;;19.85;9.43;;;17.70;97.10;;;;;;4954535;29;20019;-86
2022/05/25 09:02:39;;;;;;;15.02;9.32;;;17.80;96.80;;;;;;4954321;29;20118;-86
2022/05/25 09:05:22;;;;;;;12.55;8.40;;;17.80;96.80;;;;;;4954294;29;20046;-87
2022/05/25 09:08:11;;;;;;;11.98;6.97;;;17.90;96.80;;;;;;4954298;29;20030;-86
2022/05/25 09:10:44;;;;;;;9.95;7.38;;;17.90;96.50;;;;;;4954279;29;20055;-86
2022/05/25 09:13:35;;;;;;;11.40;7.60;;;18.00;95.70;;;;;;4953272;29;20046;-86
2022/05/25 09:16:16;;;;;;;10.90;8.32;;;18.00;95.80;;;;;;4970839;28;20035;-86
2022/05/25 09:19:00;;;;;;;9.48;8.18;;;18.10;95.90;;;;;;4945885;28;20034;-87
2022/05/25 09:21:49;;;;;;;12.82;8.60;;;18.10;95.30;;;;;;4974512;28;20085;-86
2022/05/25 09:24:19;;;;;;;13.07;8.75;;;18.20;94.90;;;;;;4972883;28;20054;-87
2022/05/25 09:26:45;;;;;;;12.38;9.35;;;18.20;94.80;;;;;;4972388;28;20030;-87
2022/05/25 09:29:12;;;;;;;14.55;9.13;;;18.20;94.30;;;;;;4941407;28;20031;-86
2022/05/25 09:31:55;;;;;;;10.30;9.20;;;18.30;94.40;;;;;;4957435;28;20027;-86
2022/05/25 09:34:53;;;;;;;12.93;10.60;;;18.30;94.40;;;;;;4974433;28;20458;-86
2022/05/25 09:37:25;;;;;;;15.88;14.25;;;18.40;94.80;;;;;;4971392;28;20130;-86
2022/05/25 09:39:52;;;;;;;19.30;17.30;;;18.40;94.10;;;;;;4957345;28;20356;-86
2022/05/25 09:42:20;;;;;;;18.33;16.45;;;18.40;93.10;;;;;;4956961;28;20467;-86
2022/05/25 09:44:53;;;;;;;19.05;17.02;;;18.30;92.90;;;;;;4956153;28;20137;-86
2022/05/25 09:47:27;;;;;;;19.23;17.23;;;18.30;93.20;;;;;;4955630;28;20023;-86
2022/05/25 09:49:57;;;;;;;20.85;18.73;;;18.30;93.70;;;;;;4957012;28;20018;-87
2022/05/25 09:52:35;;;;;;;21.15;18.30;;;18.40;93.60;;;;;;4957634;28;20378;-86
2022/05/25 09:55:19;;;;;;;21.38;18.63;;;18.40;93.80;;;;;;4960887;28;20118;-86
2022/05/25 09:58:02;;;;;;;18.65;16.75;;;18.40;94.00;;;;;;4978214;28;20021;-86
2022/05/25 10:00:34;;;;;;;16.98;14.70;;;18.50;94.30;;;;;;4960692;28;20119;-87
2022/05/25 10:03:21;;;;;;;17.80;14.00;;;18.60;93.00;;;;;;4975210;28;20018;-86
2022/05/25 10:05:53;;;;;;;16.63;13.98;;;18.60;92.80;;;;;;4957118;29;20027;-87
2022/05/25 10:08:39;;;;;;;14.73;13.18;;;18.70;93.10;;;;;;4958380;29;20106;-87
2022/05/25 10:11:33;;;;;;;14.43;12.88;;;18.80;92.80;;;;;;4941474;29;20118;-87
2022/05/25 10:14:32;;;;;;;15.88;12.68;;;18.90;92.60;;;;;;4941772;29;20043;-90
2022/05/25 10:17:09;;;;;;;17.00;13.75;;;19.00;91.60;;;;;;4930313;29;20041;-91
2022/05/25 10:19:46;;;;;;;14.60;13.20;;;19.00;91.00;;;;;;4952163;29;20031;-88
2022/05/25 10:22:31;;;;;;;12.60;11.18;;;19.10;90.80;;;;;;4958638;29;20119;-88
2022/05/25 10:25:24;;;;;;;12.85;11.18;;;19.00;89.70;;;;;;4941766;29;20066;-87
2022/05/25 10:27:50;;;;;;;10.57;8.75;;;19.00;89.50;;;;;;4941785;29;20045;-88
2022/05/25 10:39:19;;;;;;;9.15;7.43;;;19.10;87.40;;;;;;4960452;29;20216;-88
2022/05/25 10:42:00;;;;;;;7.90;6.30;;;19.00;86.20;;;;;;4941710;29;20023;-88
2022/05/25 10:44:34;;;;;;;6.70;5.80;;;19.00;87.00;;;;;;4940882;29;20467;-87
2022/05/25 10:47:00;;;;;;;9.65;6.75;;;19.00;87.20;;;;;;4941352;29;20460;-88
2022/05/25 10:49:33;;;;;;;8.00;6.63;;;19.00;86.90;;;;;;4940828;29;20077;-87
2022/05/25 10:52:20;;;;;;;6.72;5.85;;;18.90;86.80;;;;;;4940846;29;20063;-88
2022/05/25 10:54:51;;;;;;;6.70;5.88;;;18.90;87.70;;;;;;4958037;29;20035;-87
2022/05/25 10:57:20;;;;;;;;;;;18.90;87.60;;;;;;4941535;29;20055;-87
2022/05/25 11:00:07;;;;;;;7.40;5.50;;;18.90;87.60;;;;;;4956862;29;20262;-87
2022/05/25 11:03:13;;;;;;;6.63;4.95;;;18.90;87.70;;;;;;4956951;29;20034;-88
2022/05/25 11:06:02;;;;;;;7.55;4.10;;;18.90;88.60;;;;;;4956471;29;20506;-87
2022/05/25 11:08:49;;;;;;;6.95;4.45;;;18.90;88.30;;;;;;4946203;29;20042;-87
2022/05/25 11:11:44;;;;;;;6.90;5.70;;;18.90;89.20;;;;;;4940691;28;20147;-87
2022/05/25 11:14:49;;;;;;;8.48;5.65;;;18.90;90.20;;;;;;4941036;29;20027;-87
2022/05/25 11:18:06;;;;;;;6.80;4.32;;;19.00;90.40;;;;;;4940506;29;20020;-88
2022/05/25 11:21:00;;;;;;;5.53;3.30;;;19.00;90.40;;;;;;4932282;29;20035;-87
2022/05/25 11:24:00;;;;;;;6.03;2.53;;;19.10;90.30;;;;;;4940771;29;20039;-88
2022/05/25 11:26:48;;;;;;;5.82;2.30;;;19.20;88.60;;;;;;4956482;28;20047;-88
2022/05/25 11:29:53;;;;;;;;;;;;;;;;;;;;;
2022/05/25 11:32:25;;;;;;;5.00;2.17;;;19.30;84.10;;;;;;4959090;28;20042;-89
2022/05/25 11:35:02;;;;;;;3.22;2.20;;;19.30;84.10;;;;;;4971894;28;20035;-88
2022/05/25 11:37:40;;;;;;;5.65;2.72;;;19.40;82.80;;;;;;4959003;28;20050;-87
2022/05/25 11:40:21;;;;;;;6.13;2.20;;;19.40;81.50;;;;;;4975899;28;20033;-88
2022/05/25 11:43:04;;;;;;;;;;;19.30;80.10;;;;;;4959912;28;20027;-87
2022/05/25 11:45:50;;;;;;;4.70;2.20;;;19.30;80.00;;;;;;4959295;28;20303;-88
2022/05/25 11:48:56;;;;;;;4.22;1.55;;;19.20;78.40;;;;;;4968983;28;20552;-87
2022/05/25 11:51:49;;;;;;;3.42;1.58;;;19.10;78.80;;;;;;4945402;29;20373;-89
2022/05/25 11:54:42;;;;;;;13.10;3.63;;;19.10;79.50;;;;;;4956347;29;20496;-87
2022/05/25 11:57:27;;;;;;;19.20;3.28;;;19.00;78.40;;;;;;4956712;29;20023;-88
2022/05/25 12:00:14;;;;;;;2.95;1.70;;;19.00;79.80;;;;;;4956106;29;20031;-87
2022/05/25 12:02:55;;;;;;;3.47;1.73;;;19.00;79.50;;;;;;4955688;29;20082;-88
2022/05/25 12:05:49;;;;;;;2.58;1.70;;;19.20;78.10;;;;;;4957160;29;20482;-91
2022/05/25 12:08:27;;;;;;;3.90;1.90;;;19.20;77.20;;;;;;4956297;29;20023;-88
2022/05/25 12:11:34;;;;;;;6.38;1.92;;;19.30;76.60;;;;;;4956086;29;20387;-88
2022/05/25 12:14:17;;;;;;;5.50;1.60;;;19.30;77.40;;;;;;4955840;29;20130;-90
2022/05/25 12:16:45;;;;;;;3.47;1.60;;;19.40;75.70;;;;;;4955028;29;20039;-88
2022/05/25 12:19:30;;;;;;;3.60;1.50;;;19.50;72.80;;;;;;4924523;29;20456;-89
2022/05/25 12:22:08;;;;;;;2.55;1.60;;;19.60;71.10;;;;;;4957012;29;20034;-89
2022/05/25 12:24:40;;;;;;;4.00;1.60;;;19.60;72.90;;;;;;4955317;29;20066;-88
2022/05/25 12:27:14;;;;;;;4.03;1.40;;;19.80;73.20;;;;;;4955650;29;20388;-88
2022/05/25 12:29:46;;;;;;;5.63;1.70;;;19.90;71.30;;;;;;4955498;29;20480;-89
2022/05/25 12:32:12;;;;;;;4.68;1.40;;;20.00;71.10;;;;;;4955852;29;20030;-88
2022/05/25 12:34:43;;;;;;;2.35;1.50;;;20.10;72.10;;;;;;4955412;29;20023;-90
2022/05/25 12:37:12;;;;;;;3.72;1.45;;;20.20;70.80;;;;;;4955767;29;20023;-88
2022/05/25 12:39:52;;;;;;;4.43;1.80;;;20.20;72.10;;;;;;4956126;29;20031;-88
2022/05/25 12:42:26;;;;;;;3.38;1.80;;;20.30;72.20;;;;;;4955594;29;20481;-88
2022/05/25 12:50:48;;;;;;;4.05;1.10;;;20.30;66.00;;;;;;4956475;29;20114;-89
2022/05/25 12:53:44;;;;;;;5.07;1.13;;;20.20;65.60;;;;;;4955460;29;20055;-89
2022/05/25 12:56:16;;;;;;;6.90;1.45;;;20.10;64.70;;;;;;4956507;29;20460;-89
2022/05/25 12:58:47;;;;;;;4.72;1.25;;;20.00;65.50;;;;;;4954576;29;20025;-88
2022/05/25 13:01:22;;;;;;;5.97;1.52;;;20.00;66.70;;;;;;4955591;28;20035;-88
2022/05/25 13:03:48;;;;;;;5.00;1.45;;;19.90;68.10;;;;;;4954763;29;20438;-88
2022/05/25 13:06:33;;;;;;;4.22;1.23;;;19.90;69.30;;;;;;4938991;29;20125;-89
2022/05/25 13:09:10;;;;;;;6.00;1.20;;;19.90;70.50;;;;;;4939036;29;20093;-88
2022/05/25 13:11:55;;;;;;;3.92;1.40;;;19.90;70.70;;;;;;4954607;28;20019;-88
2022/05/25 13:14:22;;;;;;;3.30;1.23;;;19.90;71.10;;;;;;4954836;29;20023;-88
2022/05/25 13:16:53;;;;;;;4.55;1.10;;;19.90;70.70;;;;;;4938546;29;20027;-88
2022/05/25 13:19:43;;;;;;;4.43;1.23;;;19.80;71.20;;;;;;4953982;28;20030;-89
2022/05/25 13:22:18;;;;;;;3.95;1.42;;;19.80;71.70;;;;;;4938824;29;20130;-88
2022/05/25 13:24:54;;;;;;;6.30;1.85;;;19.80;71.80;;;;;;4938370;29;20062;-89
2022/05/25 13:27:42;;;;;;;6.25;1.48;;;19.80;71.80;;;;;;4939197;29;20051;-88
2022/05/25 13:30:43;;;;;;;4.25;1.30;;;19.80;71.20;;;;;;4938687;29;20094;-88
2022/05/25 13:33:31;;;;;;;3.05;1.10;;;19.80;70.50;;;;;;4938390;29;20066;-88
2022/05/25 13:36:22;;;;;;;4.65;1.40;;;19.90;71.60;;;;;;4956040;29;20039;-88
2022/05/25 13:39:00;;;;;;;2.95;1.15;;;19.90;72.10;;;;;;4938221;29;20028;-88
2022/05/25 13:41:32;;;;;;;3.75;1.13;;;20.00;72.30;;;;;;4938457;29;20028;-88
2022/05/25 13:43:58;;;;;;;2.80;1.25;;;20.10;72.10;;;;;;4938540;29;20031;-88
2022/05/25 13:46:45;;;;;;;5.70;1.45;;;20.10;71.70;;;;;;4937880;29;20039;-89